createdAt,value
2023-04-25T00:00:23.958Z,8.49
2023-04-25T00:02:51.077Z,8.54
2023-04-25T00:05:19.231Z,8.57
2023-04-25T00:07:47.040Z,8.51
2023-04-25T00:10:14.426Z,8.53
2023-04-25T00:12:42.467Z,8.46
2023-04-25T00:15:10.585Z,8.53
2023-04-25T00:17:39.309Z,8.53
2023-04-25T00:20:09.911Z,8.58
2023-04-25T00:22:38.474Z,8.60
2023-04-25T00:25:07.652Z,8.58
2023-04-25T00:27:34.813Z,8.61
2023-04-25T00:30:02.043Z,8.55
2023-04-25T00:32:29.123Z,8.60
2023-04-25T00:34:56.922Z,8.63
2023-04-25T00:37:24.144Z,8.63
2023-04-25T00:39:51.826Z,8.58
2023-04-25T00:42:18.860Z,8.64
2023-04-25T00:44:46.344Z,8.65
2023-04-25T00:47:14.010Z,8.66
2023-04-25T00:49:41.267Z,8.70
2023-04-25T00:52:08.441Z,8.68
2023-04-25T00:54:35.989Z,8.63
2023-04-25T00:57:03.989Z,8.72
2023-04-25T00:59:31.783Z,8.66
2023-04-25T01:01:59.482Z,8.59
2023-04-25T01:04:28.756Z,8.69
2023-04-25T01:06:56.803Z,8.63
2023-04-25T01:09:24.538Z,8.63
2023-04-25T01:11:51.822Z,8.62
2023-04-25T01:14:18.850Z,8.53
2023-04-25T01:16:46.300Z,8.48
2023-04-25T01:19:17.923Z,8.42
2023-04-25T01:21:46.417Z,8.38
2023-04-25T01:24:13.962Z,8.34
2023-04-25T01:26:45.978Z,8.22
2023-04-25T01:29:13.164Z,8.19
2023-04-25T01:31:40.691Z,8.17
2023-04-25T01:34:07.782Z,8.08
2023-04-25T01:36:36.331Z,8.08
2023-04-25T01:39:03.757Z,8.11
2023-04-25T01:41:31.117Z,8.01
2023-04-25T01:43:58.107Z,7.99
2023-04-25T01:46:25.261Z,8.02
2023-04-25T01:48:52.419Z,8.02
2023-04-25T01:51:19.704Z,8.01
2023-04-25T01:53:46.997Z,7.99
2023-04-25T01:56:14.072Z,8.05
2023-04-25T01:58:41.139Z,8.11
2023-04-25T02:01:08.229Z,8.11
2023-04-25T02:03:35.824Z,8.11
2023-04-25T02:06:03.522Z,8.15
2023-04-25T02:08:31.308Z,8.18
2023-04-25T02:10:58.872Z,8.13
2023-04-25T02:13:26.054Z,8.13
2023-04-25T02:15:53.175Z,8.09
2023-04-25T02:18:22.224Z,8.22
2023-04-25T02:20:49.391Z,8.17
2023-04-25T02:23:16.696Z,8.11
2023-04-25T02:25:43.701Z,8.11
2023-04-25T02:28:11.420Z,8.17
2023-04-25T02:30:38.605Z,8.12
2023-04-25T02:33:05.707Z,8.08
2023-04-25T02:35:32.932Z,8.05
2023-04-25T02:37:59.967Z,8.03
2023-04-25T02:40:27.166Z,8.06
2023-04-25T02:42:55.415Z,8.05
2023-04-25T02:45:22.614Z,8.00
2023-04-25T02:47:49.722Z,7.97
2023-04-25T02:50:16.855Z,8.03
2023-04-25T02:52:44.261Z,8.09
2023-04-25T02:55:11.848Z,8.08
2023-04-25T02:57:38.952Z,8.02
2023-04-25T03:00:06.931Z,8.01
2023-04-25T03:02:34.127Z,7.95
2023-04-25T03:05:01.463Z,7.75
2023-04-25T03:07:28.556Z,7.79
2023-04-25T03:09:56.615Z,7.76
2023-04-25T03:12:23.687Z,7.73
2023-04-25T03:14:50.786Z,7.70
2023-04-25T03:17:18.152Z,7.73
2023-04-25T03:19:45.335Z,7.72
2023-04-25T03:22:12.390Z,7.66
2023-04-25T03:24:39.469Z,7.65
2023-04-25T03:27:06.703Z,7.68
2023-04-25T03:29:34.028Z,7.68
2023-04-25T03:32:01.437Z,7.65
2023-04-25T03:34:29.063Z,7.62
2023-04-25T03:36:56.531Z,7.60
2023-04-25T03:39:23.585Z,7.57
2023-04-25T03:41:50.612Z,7.47
2023-04-25T03:44:17.791Z,7.42
2023-04-25T03:46:44.947Z,7.11
2023-04-25T03:49:12.331Z,7.29
2023-04-25T03:51:39.530Z,7.31
2023-04-25T03:54:06.591Z,7.23
2023-04-25T03:56:34.083Z,7.18
2023-04-25T03:59:01.149Z,7.21
2023-04-25T04:01:28.466Z,7.19
2023-04-25T04:03:56.024Z,7.20
2023-04-25T04:06:23.531Z,7.19
2023-04-25T04:08:50.843Z,7.17
2023-04-25T04:11:17.892Z,7.17
2023-04-25T04:13:44.908Z,7.13
2023-04-25T04:16:12.326Z,6.95
2023-04-25T04:18:39.481Z,7.01
2023-04-25T04:21:07.143Z,7.03
2023-04-25T04:23:34.850Z,7.04
2023-04-25T04:26:02.199Z,6.96
2023-04-25T04:28:29.458Z,6.93
2023-04-25T04:30:56.940Z,6.89
2023-04-25T04:33:24.522Z,6.87
2023-04-25T04:35:53.656Z,6.86
2023-04-25T04:38:20.797Z,6.79
2023-04-25T04:40:48.851Z,6.83
2023-04-25T04:43:18.493Z,6.83
2023-04-25T04:45:45.777Z,6.78
2023-04-25T04:48:15.171Z,6.80
2023-04-25T04:50:46.057Z,6.74
2023-04-25T04:53:14.411Z,6.66
2023-04-25T04:55:42.216Z,6.67
2023-04-25T04:58:10.025Z,6.59
2023-04-25T05:00:37.124Z,6.72
2023-04-25T05:03:04.663Z,6.72
2023-04-25T05:05:32.096Z,6.81
2023-04-25T05:07:59.426Z,6.78
2023-04-25T05:10:26.847Z,6.78
2023-04-25T05:12:54.501Z,6.77
2023-04-25T05:15:23.078Z,6.76
2023-04-25T05:17:50.807Z,6.78
2023-04-25T05:20:20.009Z,6.79
2023-04-25T05:22:47.536Z,6.76
2023-04-25T05:25:14.737Z,6.80
2023-04-25T05:27:41.836Z,6.91
2023-04-25T05:30:10.116Z,6.97
2023-04-25T05:32:38.071Z,6.96
2023-04-25T05:35:06.852Z,6.96
2023-04-25T05:37:33.984Z,7.05
2023-04-25T05:40:01.304Z,7.13
2023-04-25T05:42:28.962Z,6.99
2023-04-25T05:44:56.569Z,7.02
2023-04-25T05:47:23.845Z,7.04
2023-04-25T05:49:51.052Z,7.16
2023-04-25T05:52:18.688Z,7.25
2023-04-25T05:54:45.802Z,7.33
2023-04-25T05:57:26.681Z,7.30
2023-04-25T05:59:54.896Z,7.52
2023-04-25T06:02:22.573Z,7.67
2023-04-25T06:04:51.874Z,7.62
2023-04-25T06:07:21.318Z,7.63
2023-04-25T06:09:48.714Z,7.75
2023-04-25T06:12:15.889Z,7.66
2023-04-25T06:14:43.335Z,7.66
2023-04-25T06:17:10.887Z,7.51
2023-04-25T06:19:38.257Z,7.52
2023-04-25T06:22:05.488Z,7.51
2023-04-25T06:24:32.885Z,7.31
2023-04-25T06:27:01.030Z,7.29
2023-04-25T06:29:28.029Z,7.36
2023-04-25T06:31:55.260Z,7.53
2023-04-25T06:34:22.308Z,7.59
2023-04-25T06:36:49.386Z,7.65
2023-04-25T06:39:16.588Z,7.68
2023-04-25T06:41:43.943Z,7.60
2023-04-25T06:44:10.981Z,7.53
2023-04-25T06:46:38.797Z,7.62
2023-04-25T06:49:06.371Z,7.84
2023-04-25T06:51:33.487Z,7.79
2023-04-25T06:54:01.006Z,7.88
2023-04-25T06:56:30.720Z,7.84
2023-04-25T06:58:57.782Z,8.08
2023-04-25T07:01:25.108Z,8.06
2023-04-25T07:03:52.405Z,8.12
2023-04-25T07:06:19.563Z,8.08
2023-04-25T07:08:47.333Z,8.32
2023-04-25T07:11:14.415Z,8.22
2023-04-25T07:13:41.912Z,8.19
2023-04-25T07:16:09.011Z,8.41
2023-04-25T07:18:36.144Z,8.43
2023-04-25T07:21:03.286Z,8.45
2023-04-25T07:23:31.345Z,8.42
2023-04-25T07:25:58.461Z,8.25
2023-04-25T07:28:25.678Z,8.30
2023-04-25T07:30:52.796Z,8.13
2023-04-25T07:33:21.492Z,8.19
2023-04-25T07:35:49.269Z,8.25
2023-04-25T07:38:16.369Z,8.43
2023-04-25T07:40:43.354Z,8.66
2023-04-25T07:43:13.275Z,8.79
2023-04-25T07:45:40.633Z,8.74
2023-04-25T07:48:07.798Z,8.72
2023-04-25T07:50:34.905Z,9.00
2023-04-25T07:53:01.939Z,8.71
2023-04-25T07:55:29.230Z,8.85
2023-04-25T07:57:56.325Z,8.87
2023-04-25T08:00:23.755Z,8.88
2023-04-25T08:02:52.193Z,8.82
2023-04-25T08:05:22.206Z,8.77
2023-04-25T08:07:50.053Z,8.70
2023-04-25T08:10:17.351Z,8.58
2023-04-25T08:12:44.405Z,8.51
2023-04-25T08:15:12.021Z,8.42
2023-04-25T08:17:39.178Z,8.46
2023-04-25T08:20:07.038Z,8.57
2023-04-25T08:22:35.025Z,8.76
2023-04-25T08:25:02.200Z,8.93
2023-04-25T08:27:29.379Z,8.94
2023-04-25T08:29:56.954Z,8.74
2023-04-25T08:32:24.254Z,8.75
2023-04-25T08:34:55.327Z,8.70
2023-04-25T08:37:23.147Z,8.71
2023-04-25T08:39:53.318Z,8.94
2023-04-25T08:42:22.582Z,8.77
2023-04-25T08:44:50.031Z,8.69
2023-04-25T08:47:19.136Z,8.65
2023-04-25T08:49:47.695Z,8.64
2023-04-25T08:52:15.205Z,8.86
2023-04-25T08:54:49.810Z,9.11
2023-04-25T08:57:19.290Z,9.62
2023-04-25T08:59:48.392Z,9.70
2023-04-25T09:02:17.740Z,10.01
2023-04-25T09:04:45.718Z,10.29
2023-04-25T09:07:13.648Z,10.29
2023-04-25T09:09:40.795Z,9.81
2023-04-25T09:12:08.087Z,9.58
2023-04-25T09:14:35.349Z,9.30
2023-04-25T09:17:05.906Z,9.26
2023-04-25T09:19:41.054Z,8.99
2023-04-25T09:22:09.108Z,8.87
2023-04-25T09:24:47.384Z,9.02
2023-04-25T09:27:26.355Z,8.97
2023-04-25T09:30:03.700Z,8.89
2023-04-25T09:32:30.725Z,8.76
2023-04-25T09:34:58.411Z,8.99
2023-04-25T09:37:28.107Z,9.13
2023-04-25T09:40:06.346Z,9.47
2023-04-25T09:42:37.944Z,9.67
2023-04-25T09:45:05.644Z,9.76
2023-04-25T09:47:33.082Z,9.94
2023-04-25T09:50:00.560Z,9.97
2023-04-25T09:52:27.671Z,9.90
2023-04-25T09:54:54.784Z,10.08
2023-04-25T09:57:26.005Z,10.12
2023-04-25T09:59:55.417Z,9.64
2023-04-25T10:02:27.773Z,9.61
2023-04-25T10:04:56.642Z,9.50
2023-04-25T10:07:27.231Z,9.42
2023-04-25T10:10:04.157Z,9.46
2023-04-25T10:12:32.316Z,9.29
2023-04-25T10:15:00.088Z,8.79
2023-04-25T10:17:28.997Z,8.72
2023-04-25T10:19:56.503Z,8.74
2023-04-25T10:22:39.152Z,8.59
2023-04-25T10:25:07.929Z,8.40
2023-04-25T10:27:35.834Z,8.38
2023-04-25T10:30:12.687Z,8.68
2023-04-25T10:32:39.897Z,9.05
2023-04-25T10:35:18.599Z,9.57
2023-04-25T10:38:08.679Z,9.84
2023-04-25T10:40:36.140Z,10.07
2023-04-25T10:43:41.653Z,10.21
2023-04-25T10:46:35.058Z,9.96
2023-04-25T10:49:03.506Z,10.86
2023-04-25T10:51:53.981Z,10.96
2023-04-25T10:54:26.147Z,11.25
2023-04-25T10:56:54.363Z,11.40
2023-04-25T10:59:26.080Z,11.01
2023-04-25T11:01:56.205Z,10.74
2023-04-25T11:04:30.706Z,10.80
2023-04-25T11:07:11.265Z,11.02
2023-04-25T11:09:42.271Z,11.22
2023-04-25T11:12:12.554Z,11.85
2023-04-25T11:17:08.628Z,11.78
2023-04-25T11:19:36.055Z,12.30
2023-04-25T11:22:04.603Z,12.32
2023-04-25T11:24:36.014Z,12.25
2023-04-25T11:27:05.083Z,12.33
2023-04-25T11:29:33.601Z,12.56
2023-04-25T11:32:02.285Z,12.14
2023-04-25T11:34:36.752Z,11.90
2023-04-25T11:37:05.098Z,11.78
2023-04-25T11:39:32.376Z,12.06
2023-04-25T11:41:59.990Z,11.85
2023-04-25T11:44:29.219Z,11.54
2023-04-25T11:46:56.310Z,11.59
2023-04-25T11:49:23.522Z,11.53
2023-04-25T11:51:50.771Z,11.99
2023-04-25T11:54:18.331Z,12.40
2023-04-25T11:56:46.333Z,12.42
2023-04-25T11:59:14.415Z,11.67
2023-04-25T12:01:48.506Z,12.27
2023-04-25T12:04:34.000Z,12.32
2023-04-25T12:07:02.708Z,12.39
2023-04-25T12:09:34.240Z,12.58
2023-04-25T12:12:06.743Z,12.75
2023-04-25T12:14:36.804Z,12.70
2023-04-25T12:17:08.730Z,12.53
2023-04-25T12:19:38.324Z,13.37
2023-04-25T12:22:21.274Z,13.62
2023-04-25T12:24:48.846Z,13.08
2023-04-25T12:27:20.246Z,12.79
2023-04-25T12:29:55.673Z,12.29
2023-04-25T12:32:23.303Z,11.72
2023-04-25T12:34:50.868Z,11.24
2023-04-25T12:37:18.486Z,10.87
2023-04-25T12:39:45.707Z,10.07
2023-04-25T12:42:13.502Z,9.71
2023-04-25T12:44:41.686Z,9.47
2023-04-25T12:47:09.031Z,9.43
2023-04-25T12:49:36.316Z,9.34
2023-04-25T12:52:03.405Z,9.39
2023-04-25T12:54:30.522Z,9.63
2023-04-25T12:56:58.247Z,9.66
2023-04-25T12:59:25.511Z,10.00
2023-04-25T13:01:52.653Z,10.58
2023-04-25T13:04:22.411Z,10.89
2023-04-25T13:06:49.785Z,11.83
2023-04-25T13:09:17.412Z,12.52
2023-04-25T13:11:44.717Z,12.76
2023-04-25T13:14:11.783Z,13.07
2023-04-25T13:16:38.924Z,13.27
2023-04-25T13:19:08.406Z,12.98
2023-04-25T13:21:35.466Z,12.72
2023-04-25T13:24:02.508Z,12.29
2023-04-25T13:26:29.540Z,12.83
2023-04-25T13:28:56.612Z,13.43
2023-04-25T13:31:23.637Z,12.94
2023-04-25T13:33:50.949Z,13.13
2023-04-25T13:36:18.632Z,13.07
2023-04-25T13:38:48.486Z,12.25
2023-04-25T13:41:19.851Z,12.06
2023-04-25T13:43:49.359Z,11.89
2023-04-25T13:46:35.171Z,12.75
2023-04-25T13:49:11.578Z,13.54
2023-04-25T13:51:39.757Z,14.29
2023-04-25T13:54:07.232Z,13.22
2023-04-25T13:56:34.522Z,12.32
2023-04-25T13:59:01.896Z,11.60
2023-04-25T14:01:29.268Z,11.37
2023-04-25T14:03:56.472Z,10.91
2023-04-25T14:06:24.973Z,10.81
2023-04-25T14:08:52.898Z,11.58
2023-04-25T14:11:20.012Z,11.33
2023-04-25T14:13:48.584Z,10.89
2023-04-25T14:16:17.495Z,10.80
2023-04-25T14:18:44.578Z,10.41
2023-04-25T14:21:11.780Z,10.23
2023-04-25T14:23:38.960Z,10.25
2023-04-25T14:26:06.269Z,10.18
2023-04-25T14:28:33.772Z,10.60
2023-04-25T14:31:01.835Z,10.59
2023-04-25T14:33:28.987Z,10.75
2023-04-25T14:35:56.944Z,11.49
2023-04-25T14:38:25.956Z,12.32
2023-04-25T14:40:54.841Z,12.84
2023-04-25T14:43:21.887Z,13.42
2023-04-25T14:45:48.981Z,12.31
2023-04-25T14:48:17.556Z,10.93
2023-04-25T14:50:44.613Z,10.10
2023-04-25T14:53:12.068Z,9.62
2023-04-25T14:55:39.626Z,8.95
2023-04-25T14:58:07.373Z,8.90
2023-04-25T15:00:34.481Z,8.83
2023-04-25T15:03:02.189Z,8.68
2023-04-25T15:05:29.681Z,8.79
2023-04-25T15:07:56.780Z,8.85
2023-04-25T15:10:23.789Z,9.09
2023-04-25T15:12:52.074Z,9.86
2023-04-25T15:15:26.034Z,10.56
2023-04-25T15:17:58.633Z,11.33
2023-04-25T15:20:28.002Z,12.12
2023-04-25T15:22:55.633Z,12.65
2023-04-25T15:25:22.807Z,13.31
2023-04-25T15:27:50.421Z,13.19
2023-04-25T15:30:18.600Z,13.60
2023-04-25T15:32:49.509Z,12.96
2023-04-25T15:35:18.394Z,12.47
2023-04-25T15:37:47.419Z,12.67
2023-04-25T15:40:16.555Z,12.76
2023-04-25T15:42:51.703Z,12.76
2023-04-25T15:45:21.583Z,13.47
2023-04-25T15:47:51.406Z,13.59
2023-04-25T15:50:21.982Z,13.54
2023-04-25T15:52:50.388Z,13.98
2023-04-25T15:55:19.021Z,14.01
2023-04-25T15:57:46.413Z,14.51
2023-04-25T16:00:15.861Z,13.97
2023-04-25T16:02:44.608Z,12.98
2023-04-25T16:05:14.837Z,11.80
2023-04-25T16:07:43.663Z,11.36
2023-04-25T16:10:11.658Z,10.76
2023-04-25T16:12:40.093Z,10.44
2023-04-25T16:15:07.763Z,10.56
2023-04-25T16:17:35.406Z,10.67
2023-04-25T16:20:10.584Z,10.59
2023-04-25T16:22:44.141Z,10.57
2023-04-25T16:25:12.565Z,10.42
2023-04-25T16:27:39.988Z,10.60
2023-04-25T16:30:08.447Z,10.88
2023-04-25T16:32:36.180Z,11.03
2023-04-25T16:35:03.474Z,11.10
2023-04-25T16:37:31.411Z,10.99
2023-04-25T16:39:58.545Z,10.85
2023-04-25T16:42:26.083Z,10.87
2023-04-25T16:44:53.184Z,10.58
2023-04-25T16:47:20.763Z,10.29
2023-04-25T16:49:47.848Z,10.63
2023-04-25T16:52:16.109Z,10.94
2023-04-25T16:54:43.334Z,11.12
2023-04-25T16:57:11.305Z,10.97
2023-04-25T16:59:41.520Z,10.47
2023-04-25T17:02:12.907Z,10.44
2023-04-25T17:04:40.912Z,10.08
2023-04-25T17:07:09.393Z,9.86
2023-04-25T17:09:36.758Z,10.08
2023-04-25T17:12:04.512Z,10.35
2023-04-25T17:14:33.243Z,10.54
2023-04-25T17:17:00.935Z,10.86
2023-04-25T17:19:30.329Z,10.38
2023-04-25T17:21:58.184Z,10.35
2023-04-25T17:24:25.673Z,10.40
2023-04-25T17:26:54.750Z,10.19
2023-04-25T17:29:23.678Z,10.22
2023-04-25T17:31:51.718Z,9.84
2023-04-25T17:34:19.440Z,9.70
2023-04-25T17:36:47.573Z,9.38
2023-04-25T17:39:17.846Z,9.31
2023-04-25T17:41:45.347Z,9.13
2023-04-25T17:44:12.388Z,8.95
2023-04-25T17:46:39.519Z,8.83
2023-04-25T17:49:06.707Z,8.75
2023-04-25T17:51:33.775Z,8.75
2023-04-25T17:54:00.860Z,8.57
2023-04-25T17:56:28.143Z,8.60
2023-04-25T17:58:55.818Z,8.43
2023-04-25T18:01:23.320Z,8.50
2023-04-25T18:03:51.652Z,8.52
2023-04-25T18:06:19.785Z,8.33
2023-04-25T18:08:47.453Z,8.28
2023-04-25T18:11:14.476Z,8.27
2023-04-25T18:13:41.797Z,8.00
2023-04-25T18:16:09.092Z,7.93
2023-04-25T18:18:36.778Z,7.75
2023-04-25T18:21:05.602Z,7.61
2023-04-25T18:23:37.011Z,7.54
2023-04-25T18:26:05.115Z,7.46
2023-04-25T18:28:34.256Z,7.25
2023-04-25T18:31:01.652Z,7.11
2023-04-25T18:33:28.782Z,7.12
2023-04-25T18:35:59.666Z,7.10
2023-04-25T18:41:06.171Z,7.04
2023-04-25T18:43:44.839Z,7.06
2023-04-25T18:46:12.121Z,6.99
2023-04-25T18:48:39.307Z,6.99
2023-04-25T18:51:06.715Z,6.92
2023-04-25T18:53:33.906Z,6.94
2023-04-25T18:56:01.212Z,6.91
2023-04-25T18:58:28.362Z,6.97
2023-04-25T19:00:55.672Z,6.90
2023-04-25T19:03:23.016Z,6.85
2023-04-25T19:05:50.766Z,6.83
2023-04-25T19:08:18.384Z,6.86
2023-04-25T19:10:45.539Z,6.79
2023-04-25T19:13:13.849Z,6.78
2023-04-25T19:15:41.426Z,6.72
2023-04-25T19:18:09.006Z,6.71
2023-04-25T19:20:36.284Z,6.67
2023-04-25T19:23:05.289Z,6.66
2023-04-25T19:25:32.424Z,6.60
2023-04-25T19:28:00.731Z,6.49
2023-04-25T19:30:29.473Z,6.54
2023-04-25T19:32:57.366Z,6.47
2023-04-25T19:35:25.371Z,6.43
2023-04-25T19:37:52.367Z,-138.62
2023-04-25T19:40:23.592Z,-138.62
2023-04-25T19:42:51.041Z,-138.62
2023-04-25T19:45:18.908Z,-138.62
2023-04-25T19:47:46.868Z,-138.62
2023-04-25T19:50:15.012Z,-138.62
2023-04-25T19:52:42.540Z,-138.62
2023-04-25T19:55:11.016Z,6.07
2023-04-25T19:57:38.358Z,6.04
2023-04-25T20:00:10.879Z,5.92
2023-04-25T20:02:39.124Z,-138.62
2023-04-25T20:05:08.751Z,-138.62
2023-04-25T20:07:35.951Z,-138.62
2023-04-25T20:10:04.120Z,-138.62
2023-04-25T20:12:31.462Z,5.91
2023-04-25T20:14:58.674Z,5.93
2023-04-25T20:17:25.946Z,5.87
2023-04-25T20:19:53.125Z,5.77
2023-04-25T20:22:20.457Z,5.87
2023-04-25T20:24:48.404Z,5.83
2023-04-25T20:27:15.889Z,5.79
2023-04-25T20:29:42.979Z,5.72
2023-04-25T20:32:10.560Z,5.75
2023-04-25T20:34:38.107Z,5.69
2023-04-25T20:37:05.556Z,5.71
2023-04-25T20:39:33.398Z,5.73
2023-04-25T20:42:02.249Z,5.71
2023-04-25T20:44:29.412Z,5.73
2023-04-25T20:46:56.583Z,5.76
2023-04-25T20:49:23.658Z,5.73
2023-04-25T20:51:50.834Z,5.59
2023-04-25T20:54:18.527Z,5.53
2023-04-25T20:56:46.057Z,5.56
2023-04-25T20:59:13.509Z,5.61
2023-04-25T21:01:40.883Z,5.67
2023-04-25T21:04:09.402Z,5.63
2023-04-25T21:06:37.113Z,5.65
2023-04-25T21:09:04.857Z,5.62
2023-04-25T21:11:33.014Z,5.65
2023-04-25T21:14:00.680Z,5.57
2023-04-25T21:16:27.766Z,5.54
2023-04-25T21:18:55.233Z,5.60
2023-04-25T21:21:22.296Z,5.55
2023-04-25T21:23:49.297Z,5.55
2023-04-25T21:26:16.579Z,5.50
2023-04-25T21:28:43.840Z,5.54
2023-04-25T21:31:11.411Z,5.46
2023-04-25T21:33:40.763Z,5.48
2023-04-25T21:36:08.312Z,5.46
2023-04-25T21:38:35.718Z,5.41
2023-04-25T21:41:06.144Z,5.40
2023-04-25T21:43:33.481Z,5.25
2023-04-25T21:48:30.767Z,5.16
2023-04-25T21:51:01.116Z,5.26
2023-04-25T21:53:28.618Z,5.18
2023-04-25T21:55:55.723Z,5.20
2023-04-25T21:58:23.185Z,5.15
2023-04-25T22:00:50.641Z,5.13
2023-04-25T22:03:20.282Z,5.09
2023-04-25T22:05:48.444Z,5.07
2023-04-25T22:08:15.981Z,5.03
2023-04-25T22:10:43.044Z,5.00
2023-04-25T22:13:10.120Z,4.99
2023-04-25T22:15:38.632Z,5.03
2023-04-25T22:18:05.875Z,5.03
2023-04-25T22:20:33.354Z,4.98
2023-04-25T22:23:00.927Z,4.94
2023-04-25T22:25:28.723Z,4.96
2023-04-25T22:27:55.897Z,4.97
2023-04-25T22:30:23.098Z,4.98
2023-04-25T22:32:50.377Z,4.94
2023-04-25T22:35:17.468Z,4.95
2023-04-25T22:37:44.943Z,4.90
2023-04-25T22:40:12.748Z,4.83
2023-04-25T22:42:40.920Z,4.83
2023-04-25T22:45:09.408Z,4.86
2023-04-25T22:47:39.947Z,4.78
2023-04-25T22:50:12.902Z,4.75
2023-04-25T22:52:40.579Z,4.73
2023-04-25T22:55:08.110Z,4.72
2023-04-25T22:57:38.432Z,4.70
2023-04-25T23:00:16.754Z,4.71
2023-04-25T23:02:45.952Z,4.69
2023-04-25T23:05:14.309Z,4.71
2023-04-25T23:07:42.104Z,4.63
2023-04-25T23:10:09.938Z,4.67
2023-04-25T23:12:37.083Z,4.57
2023-04-25T23:15:05.226Z,4.60
2023-04-25T23:17:32.690Z,4.62
2023-04-25T23:19:59.906Z,4.59
2023-04-25T23:22:26.996Z,4.52
2023-04-25T23:24:54.450Z,4.57
2023-04-25T23:27:21.661Z,4.53
2023-04-25T23:29:57.992Z,4.57
2023-04-25T23:32:26.488Z,4.52
2023-04-25T23:34:53.828Z,4.51
2023-04-25T23:37:20.839Z,4.46
2023-04-25T23:39:50.570Z,4.39
2023-04-25T23:42:19.133Z,4.38
2023-04-25T23:44:47.746Z,4.37
2023-04-25T23:47:17.548Z,4.32
2023-04-25T23:49:45.697Z,4.34
2023-04-25T23:52:13.058Z,4.27
2023-04-25T23:54:40.336Z,4.31
2023-04-25T23:57:07.891Z,4.27
2023-04-25T23:59:35.072Z,4.26
